createdAt,value
2017-11-20T00:00:37.992Z,2.00
2017-11-20T00:03:06.290Z,2.00
2017-11-20T00:05:35.059Z,2.00
2017-11-20T00:08:03.337Z,2.10
2017-11-20T00:10:32.353Z,2.00
2017-11-20T00:13:00.641Z,2.00
2017-11-20T00:15:29.013Z,2.10
2017-11-20T00:17:57.294Z,2.10
2017-11-20T00:20:25.597Z,2.10
2017-11-20T00:22:53.900Z,2.10
2017-11-20T00:25:22.197Z,2.10
2017-11-20T00:27:50.484Z,2.10
2017-11-20T00:30:18.777Z,2.20
2017-11-20T00:32:47.112Z,2.20
2017-11-20T00:35:16.195Z,2.20
2017-11-20T00:37:44.496Z,2.20
2017-11-20T00:40:12.790Z,2.20
2017-11-20T00:42:41.846Z,2.20
2017-11-20T00:45:10.139Z,2.20
2017-11-20T00:47:38.472Z,2.20
2017-11-20T00:50:07.588Z,2.20
2017-11-20T00:52:35.912Z,2.20
2017-11-20T00:55:04.204Z,2.20
2017-11-20T00:57:32.487Z,2.30
2017-11-20T01:00:00.768Z,2.30
2017-11-20T01:02:29.086Z,2.30
2017-11-20T01:04:57.425Z,2.30
2017-11-20T01:07:26.626Z,2.30
2017-11-20T01:09:55.683Z,2.30
2017-11-20T01:12:23.981Z,2.30
2017-11-20T01:14:52.271Z,2.30
2017-11-20T01:17:20.562Z,2.20
2017-11-20T01:19:49.007Z,2.20
2017-11-20T01:22:17.309Z,2.20
2017-11-20T01:24:45.597Z,2.20
2017-11-20T01:27:13.894Z,2.20
2017-11-20T01:29:42.200Z,2.20
2017-11-20T01:32:10.554Z,2.20
2017-11-20T01:34:38.840Z,2.20
2017-11-20T01:37:07.910Z,2.20
2017-11-20T01:39:36.355Z,2.20
2017-11-20T01:42:04.662Z,2.20
2017-11-20T01:44:32.947Z,2.20
2017-11-20T01:47:01.254Z,2.20
2017-11-20T01:49:29.553Z,2.20
2017-11-20T01:51:57.855Z,2.30
2017-11-20T01:54:26.208Z,2.30
2017-11-20T01:56:54.520Z,2.20
2017-11-20T01:59:22.811Z,2.20
2017-11-20T02:01:51.137Z,2.20
2017-11-20T02:04:19.427Z,2.30
2017-11-20T02:06:48.523Z,2.30
2017-11-20T02:09:17.586Z,2.30
2017-11-20T02:11:45.870Z,2.30
2017-11-20T02:14:14.188Z,2.30
2017-11-20T02:16:42.481Z,2.30
2017-11-20T02:19:10.799Z,2.30
2017-11-20T02:21:39.869Z,2.20
2017-11-20T02:24:08.193Z,2.30
2017-11-20T02:26:36.491Z,2.30
2017-11-20T02:29:04.781Z,2.20
2017-11-20T02:31:33.111Z,2.20
2017-11-20T02:34:02.192Z,2.30
2017-11-20T02:36:30.485Z,2.20
2017-11-20T02:38:58.772Z,2.30
2017-11-20T02:41:27.095Z,2.20
2017-11-20T02:43:55.471Z,2.20
2017-11-20T02:46:23.779Z,2.20
2017-11-20T02:48:52.078Z,2.10
2017-11-20T02:51:20.373Z,2.10
2017-11-20T02:53:48.648Z,2.00
2017-11-20T02:56:16.948Z,1.90
2017-11-20T02:58:45.232Z,1.90
2017-11-20T03:01:13.554Z,1.90
2017-11-20T03:03:41.841Z,1.90
2017-11-20T03:06:10.144Z,1.90
2017-11-20T03:08:38.471Z,1.90
2017-11-20T03:11:06.803Z,1.90
2017-11-20T03:13:35.896Z,1.90
2017-11-20T03:16:04.962Z,1.90
2017-11-20T03:18:33.349Z,1.90
2017-11-20T03:21:01.678Z,1.80
2017-11-20T03:23:29.961Z,1.80
2017-11-20T03:25:58.283Z,1.80
2017-11-20T03:28:26.582Z,1.80
2017-11-20T03:30:54.874Z,1.90
2017-11-20T03:33:23.156Z,1.90
2017-11-20T03:35:51.461Z,1.90
2017-11-20T03:38:19.811Z,1.90
2017-11-20T03:40:48.891Z,2.00
2017-11-20T03:43:17.175Z,1.90
2017-11-20T03:45:45.464Z,1.90
2017-11-20T03:48:13.752Z,2.00
2017-11-20T03:50:42.060Z,2.00
2017-11-20T03:53:10.364Z,2.00
2017-11-20T03:55:38.691Z,2.00
2017-11-20T03:58:06.986Z,2.00
2017-11-20T04:00:35.278Z,2.00
2017-11-20T04:03:03.560Z,2.00
2017-11-20T04:05:31.840Z,2.00
2017-11-20T04:08:00.144Z,2.00
2017-11-20T04:10:28.497Z,2.00
2017-11-20T04:12:56.817Z,2.00
2017-11-20T04:15:25.096Z,2.00
2017-11-20T04:17:53.387Z,2.00
2017-11-20T04:20:21.693Z,2.00
2017-11-20T04:22:50.008Z,2.00
2017-11-20T04:25:18.306Z,2.10
2017-11-20T04:27:46.591Z,2.00
2017-11-20T04:30:14.896Z,2.00
2017-11-20T04:32:43.960Z,2.00
2017-11-20T04:35:12.293Z,2.00
2017-11-20T04:37:41.342Z,1.90
2017-11-20T04:40:09.640Z,1.90
2017-11-20T04:42:37.956Z,1.90
2017-11-20T04:45:06.265Z,1.80
2017-11-20T04:47:35.331Z,1.70
2017-11-20T04:50:03.629Z,1.60
2017-11-20T04:52:31.952Z,1.50
2017-11-20T04:55:00.995Z,1.40
2017-11-20T04:57:29.297Z,1.40
2017-11-20T04:59:57.584Z,1.30
2017-11-20T05:02:25.865Z,1.20
2017-11-20T05:04:54.179Z,1.10
2017-11-20T05:07:22.461Z,1.20
2017-11-20T05:09:50.732Z,1.10
2017-11-20T05:12:19.014Z,1.10
2017-11-20T05:14:47.287Z,1.20
2017-11-20T05:17:15.614Z,1.20
2017-11-20T05:19:43.892Z,1.20
2017-11-20T05:22:12.211Z,1.10
2017-11-20T05:24:40.521Z,1.10
2017-11-20T05:27:09.571Z,1.00
2017-11-20T05:29:37.880Z,0.90
2017-11-20T05:32:06.217Z,0.90
2017-11-20T05:34:34.518Z,0.90
2017-11-20T05:37:02.904Z,0.80
2017-11-20T05:39:31.184Z,0.80
2017-11-20T05:42:00.256Z,1.00
2017-11-20T05:44:28.561Z,1.00
2017-11-20T05:46:56.838Z,1.00
2017-11-20T05:49:25.132Z,1.00
2017-11-20T05:51:53.416Z,1.00
2017-11-20T05:54:21.760Z,1.10
2017-11-20T05:56:50.061Z,1.10
2017-11-20T05:59:18.366Z,1.10
2017-11-20T06:01:46.657Z,1.10
2017-11-20T06:04:14.940Z,1.20
2017-11-20T06:06:43.459Z,1.20
2017-11-20T06:09:12.544Z,1.30
2017-11-20T06:11:40.844Z,1.30
2017-11-20T06:14:09.134Z,1.30
2017-11-20T06:16:37.441Z,1.30
2017-11-20T06:19:06.681Z,1.40
2017-11-20T06:21:34.992Z,1.30
2017-11-20T06:24:03.276Z,1.40
2017-11-20T06:26:31.577Z,1.40
2017-11-20T06:28:59.866Z,1.40
2017-11-20T06:31:28.287Z,1.40
2017-11-20T06:33:56.609Z,1.40
2017-11-20T06:36:24.900Z,1.50
2017-11-20T06:38:53.196Z,1.40
2017-11-20T06:41:21.481Z,1.40
2017-11-20T06:43:49.803Z,1.40
2017-11-20T06:46:18.137Z,1.40
2017-11-20T06:48:46.401Z,1.50
2017-11-20T06:51:14.707Z,1.50
2017-11-20T06:53:44.003Z,1.50
2017-11-20T06:56:12.358Z,1.40
2017-11-20T06:58:40.685Z,1.50
2017-11-20T07:01:08.976Z,1.50
2017-11-20T07:03:37.271Z,1.50
2017-11-20T07:06:05.585Z,1.50
2017-11-20T07:08:34.772Z,1.50
2017-11-20T07:11:03.090Z,1.50
2017-11-20T07:13:31.374Z,1.50
2017-11-20T07:15:59.732Z,1.50
2017-11-20T07:18:28.040Z,1.50
2017-11-20T07:20:57.100Z,1.50
2017-11-20T07:23:25.512Z,1.50
2017-11-20T07:26:05.389Z,1.50
2017-11-20T07:28:46.368Z,1.50
2017-11-20T07:31:26.116Z,1.50
2017-11-20T07:34:06.416Z,1.50
2017-11-20T07:36:47.321Z,1.50
2017-11-20T07:39:21.495Z,1.50
2017-11-20T07:41:52.518Z,1.50
2017-11-20T07:44:20.830Z,1.50
2017-11-20T07:46:49.138Z,1.50
2017-11-20T07:49:17.447Z,1.50
2017-11-20T07:51:45.732Z,1.50
2017-11-20T07:54:14.813Z,1.50
2017-11-20T07:56:43.105Z,1.50
2017-11-20T07:59:11.433Z,1.50
2017-11-20T08:01:39.754Z,1.50
2017-11-20T08:04:08.060Z,1.50
2017-11-20T08:06:36.364Z,1.50
2017-11-20T08:09:04.680Z,1.50
2017-11-20T08:11:33.731Z,1.50
2017-11-20T08:14:02.030Z,1.50
2017-11-20T08:16:30.322Z,1.50
2017-11-20T08:18:58.632Z,1.50
2017-11-20T08:21:26.916Z,1.50
2017-11-20T08:23:55.213Z,1.50
2017-11-20T08:26:23.505Z,1.50
2017-11-20T08:28:51.799Z,1.40
2017-11-20T08:31:20.119Z,1.40
2017-11-20T08:33:48.419Z,1.40
2017-11-20T08:36:16.715Z,1.40
2017-11-20T08:38:45.021Z,1.40
2017-11-20T08:41:13.343Z,1.50
2017-11-20T08:43:41.632Z,1.40
2017-11-20T08:46:09.981Z,1.40
2017-11-20T08:48:38.307Z,1.40
2017-11-20T08:51:06.608Z,1.40
2017-11-20T08:53:35.682Z,1.40
2017-11-20T08:56:03.988Z,1.40
2017-11-20T08:58:32.264Z,1.40
2017-11-20T09:01:00.565Z,1.20
2017-11-20T09:03:28.873Z,1.10
2017-11-20T09:05:57.927Z,1.00
2017-11-20T09:08:26.998Z,1.10
2017-11-20T09:10:56.049Z,1.10
2017-11-20T09:13:24.336Z,1.00
2017-11-20T09:15:52.636Z,1.10
2017-11-20T09:18:20.917Z,1.10
2017-11-20T09:20:49.275Z,1.10
2017-11-20T09:23:17.554Z,1.00
2017-11-20T09:25:45.870Z,1.10
2017-11-20T09:28:14.156Z,1.00
2017-11-20T09:30:42.471Z,1.00
2017-11-20T09:33:10.801Z,1.00
2017-11-20T09:35:39.981Z,1.00
2017-11-20T09:38:08.292Z,1.00
2017-11-20T09:40:37.376Z,0.90
2017-11-20T09:43:05.690Z,0.90
2017-11-20T09:45:34.846Z,1.00
2017-11-20T09:48:03.182Z,1.00
2017-11-20T09:50:32.336Z,1.00
2017-11-20T09:53:00.687Z,1.00
2017-11-20T09:55:29.768Z,1.10
2017-11-20T09:57:59.049Z,1.00
2017-11-20T10:00:28.200Z,1.00
2017-11-20T10:02:56.626Z,1.00
2017-11-20T10:05:25.029Z,1.00
2017-11-20T10:07:53.376Z,0.90
2017-11-20T10:10:21.716Z,0.90
2017-11-20T10:12:50.081Z,1.00
2017-11-20T10:15:18.438Z,1.00
2017-11-20T10:17:46.802Z,1.10
2017-11-20T10:20:15.187Z,1.10
2017-11-20T10:22:43.527Z,1.10
2017-11-20T10:25:11.822Z,1.20
2017-11-20T10:27:40.879Z,1.20
2017-11-20T10:30:09.176Z,1.20
2017-11-20T10:32:37.471Z,1.20
2017-11-20T10:35:06.669Z,1.20
2017-11-20T10:37:36.152Z,1.20
2017-11-20T10:40:04.435Z,1.20
2017-11-20T10:42:32.774Z,1.20
2017-11-20T10:45:01.096Z,1.30
2017-11-20T10:47:30.176Z,1.30
2017-11-20T10:49:58.472Z,1.30
2017-11-20T10:52:26.789Z,1.40
2017-11-20T10:54:55.110Z,1.50
2017-11-20T10:57:23.484Z,1.50
2017-11-20T10:59:51.865Z,1.60
2017-11-20T11:02:20.974Z,1.60
2017-11-20T11:04:49.339Z,1.60
2017-11-20T11:07:17.697Z,1.60
2017-11-20T11:09:46.180Z,1.60
2017-11-20T11:12:14.555Z,1.50
2017-11-20T11:14:42.925Z,1.50
2017-11-20T11:17:12.003Z,1.50
2017-11-20T11:19:40.349Z,1.40
2017-11-20T11:22:08.670Z,1.40
2017-11-20T11:24:37.076Z,1.40
2017-11-20T11:27:05.629Z,1.40
2017-11-20T11:29:34.621Z,1.40
2017-11-20T11:32:02.932Z,1.40
2017-11-20T11:34:31.217Z,1.50
2017-11-20T11:36:59.508Z,1.50
2017-11-20T11:39:27.850Z,1.50
2017-11-20T11:41:56.929Z,1.50
2017-11-20T11:44:25.444Z,1.50
2017-11-20T11:46:53.835Z,1.40
2017-11-20T11:49:22.140Z,1.50
2017-11-20T11:51:51.222Z,1.40
2017-11-20T11:54:19.504Z,1.40
2017-11-20T11:56:47.871Z,1.50
2017-11-20T11:59:16.194Z,1.40
2017-11-20T12:01:44.487Z,1.50
2017-11-20T12:04:12.770Z,1.50
2017-11-20T12:06:41.105Z,1.40
2017-11-20T12:09:09.465Z,1.30
2017-11-20T12:11:37.862Z,1.20
2017-11-20T12:14:06.194Z,1.10
2017-11-20T12:16:34.561Z,1.10
2017-11-20T12:19:02.951Z,1.00
2017-11-20T12:21:31.245Z,1.10
2017-11-20T12:23:59.542Z,1.10
2017-11-20T12:26:27.868Z,1.10
2017-11-20T12:28:56.207Z,1.10
2017-11-20T12:31:24.498Z,1.20
2017-11-20T12:33:52.781Z,1.20
2017-11-20T12:36:21.881Z,1.30
2017-11-20T12:38:50.933Z,1.40
2017-11-20T12:41:19.312Z,1.30
2017-11-20T12:43:47.604Z,1.40
2017-11-20T12:46:15.911Z,1.50
2017-11-20T12:48:44.194Z,1.40
2017-11-20T12:51:12.550Z,1.30
2017-11-20T12:53:40.888Z,1.30
2017-11-20T12:56:09.207Z,1.20
2017-11-20T12:58:38.281Z,1.10
2017-11-20T13:01:06.584Z,1.10
2017-11-20T13:03:34.954Z,1.10
2017-11-20T13:06:03.248Z,1.00
2017-11-20T13:08:31.548Z,1.00
2017-11-20T13:10:59.840Z,1.00
2017-11-20T13:13:28.128Z,0.90
2017-11-20T13:15:56.480Z,0.90
2017-11-20T13:18:24.833Z,0.90
2017-11-20T13:20:53.118Z,0.90
2017-11-20T13:23:22.168Z,0.90
2017-11-20T13:25:50.494Z,0.90
2017-11-20T13:28:18.836Z,0.90
2017-11-20T13:30:47.207Z,0.90
2017-11-20T13:33:15.599Z,0.80
2017-11-20T13:35:43.974Z,0.80
2017-11-20T13:38:13.578Z,0.80
2017-11-20T13:40:42.280Z,0.80
2017-11-20T13:43:11.028Z,0.80
2017-11-20T13:45:39.705Z,0.80
2017-11-20T13:48:08.450Z,0.80
2017-11-20T13:50:37.133Z,0.80
2017-11-20T13:53:05.861Z,0.90
2017-11-20T13:55:34.675Z,0.90
2017-11-20T13:58:03.280Z,1.00
2017-11-20T14:00:32.006Z,1.10
2017-11-20T14:03:00.773Z,1.10
2017-11-20T14:05:29.435Z,1.10
2017-11-20T14:07:58.008Z,1.20
2017-11-20T14:10:26.654Z,1.20
2017-11-20T14:12:55.197Z,1.20
2017-11-20T14:15:23.604Z,1.30
2017-11-20T14:17:51.889Z,1.20
2017-11-20T14:20:20.518Z,1.30
2017-11-20T14:22:49.960Z,1.30
2017-11-20T14:25:18.510Z,1.30
2017-11-20T14:27:47.089Z,1.30
2017-11-20T14:30:15.678Z,1.40
2017-11-20T14:32:45.435Z,1.40
2017-11-20T14:35:16.706Z,1.40
2017-11-20T14:37:45.438Z,1.40
2017-11-20T14:40:14.872Z,1.40
2017-11-20T14:42:43.600Z,1.40
2017-11-20T14:45:12.975Z,1.50
2017-11-20T14:47:41.592Z,1.40
2017-11-20T14:50:10.276Z,1.50
2017-11-20T14:52:38.915Z,1.50
2017-11-20T14:55:08.457Z,1.50
2017-11-20T14:57:37.052Z,1.50
2017-11-20T15:00:05.544Z,1.60
2017-11-20T15:02:34.196Z,1.60
2017-11-20T15:05:02.895Z,1.60
2017-11-20T15:07:31.668Z,1.60
2017-11-20T15:10:00.270Z,1.70
2017-11-20T15:12:28.937Z,1.70
2017-11-20T15:14:57.516Z,1.70
2017-11-20T15:17:26.819Z,1.70
2017-11-20T15:19:55.547Z,1.70
2017-11-20T15:22:25.049Z,1.80
2017-11-20T15:24:53.632Z,1.80
2017-11-20T15:27:22.424Z,1.90
2017-11-20T15:29:51.077Z,1.80
2017-11-20T15:32:19.709Z,1.80
2017-11-20T15:34:48.461Z,1.80
2017-11-20T15:37:17.723Z,1.70
2017-11-20T15:39:47.041Z,1.70
2017-11-20T15:42:15.765Z,1.70
2017-11-20T15:44:44.249Z,1.70
2017-11-20T15:47:12.858Z,1.70
2017-11-20T15:49:41.510Z,1.70
2017-11-20T15:52:10.037Z,1.70
2017-11-20T15:54:39.521Z,1.70
2017-11-20T15:57:08.239Z,1.70
2017-11-20T15:59:36.959Z,1.70
2017-11-20T16:02:06.221Z,1.70
2017-11-20T16:04:35.502Z,1.70
2017-11-20T16:07:03.991Z,1.70
2017-11-20T16:09:33.451Z,1.70
2017-11-20T16:12:02.758Z,1.80
2017-11-20T16:14:31.287Z,1.70
2017-11-20T16:16:59.977Z,1.70
2017-11-20T16:19:29.532Z,1.70
2017-11-20T16:21:58.108Z,1.70
2017-11-20T16:24:26.796Z,1.80
2017-11-20T16:26:55.345Z,1.80
2017-11-20T16:29:24.656Z,1.80
2017-11-20T16:31:53.137Z,1.80
2017-11-20T16:34:21.626Z,1.80
2017-11-20T16:36:50.394Z,1.90
2017-11-20T16:39:18.918Z,1.90
2017-11-20T16:41:48.174Z,1.90
2017-11-20T16:44:17.747Z,1.90
2017-11-20T16:46:46.321Z,1.90
2017-11-20T16:49:15.715Z,1.90
2017-11-20T16:51:44.286Z,1.90
2017-11-20T16:54:13.641Z,1.90
2017-11-20T16:56:42.078Z,1.90
2017-11-20T16:59:10.508Z,2.00
2017-11-20T17:01:51.455Z,2.00
2017-11-20T17:04:19.935Z,2.00
2017-11-20T17:06:48.488Z,2.00
2017-11-20T17:09:17.044Z,2.00
2017-11-20T17:11:46.430Z,2.00
2017-11-20T17:14:15.033Z,2.00
2017-11-20T17:16:43.676Z,2.00
2017-11-20T17:19:12.195Z,2.00
2017-11-20T17:21:41.621Z,2.00
2017-11-20T17:24:10.349Z,2.00
2017-11-20T17:26:38.985Z,2.10
2017-11-20T17:29:07.595Z,2.10
2017-11-20T17:31:36.258Z,2.10
2017-11-20T17:34:04.913Z,2.10
2017-11-20T17:36:34.179Z,2.10
2017-11-20T17:39:02.803Z,2.10
2017-11-20T17:41:31.489Z,2.20
2017-11-20T17:44:00.810Z,2.20
2017-11-20T17:46:29.369Z,2.20
2017-11-20T17:48:58.188Z,2.20
2017-11-20T17:51:26.808Z,2.20
2017-11-20T17:53:55.379Z,2.20
2017-11-20T17:56:24.036Z,2.20
2017-11-20T17:58:53.398Z,2.30
2017-11-20T18:01:22.724Z,2.30
2017-11-20T18:03:51.868Z,2.30
2017-11-20T18:06:20.334Z,2.30
2017-11-20T18:08:48.746Z,2.40
2017-11-20T18:11:17.197Z,2.40
2017-11-20T18:13:45.790Z,2.40
2017-11-20T18:16:15.449Z,2.40
2017-11-20T18:18:44.807Z,2.40
2017-11-20T18:21:13.289Z,2.40
2017-11-20T18:23:41.628Z,2.40
2017-11-20T18:26:10.006Z,2.40
2017-11-20T18:28:38.297Z,2.40
2017-11-20T18:31:06.605Z,2.40
2017-11-20T18:33:35.762Z,2.40
2017-11-20T18:36:04.072Z,2.40
2017-11-20T18:38:32.360Z,2.40
2017-11-20T18:41:00.649Z,2.50
2017-11-20T18:43:28.924Z,2.50
2017-11-20T18:45:57.266Z,2.50
2017-11-20T18:48:26.315Z,2.50
2017-11-20T18:50:54.654Z,2.50
2017-11-20T18:53:22.934Z,2.50
2017-11-20T18:55:51.239Z,2.50
2017-11-20T18:58:19.521Z,2.60
2017-11-20T19:00:59.480Z,2.60
2017-11-20T19:03:28.694Z,2.60
2017-11-20T19:06:08.654Z,2.70
2017-11-20T19:08:41.635Z,2.60
2017-11-20T19:11:09.964Z,2.70
2017-11-20T19:13:39.011Z,2.70
2017-11-20T19:16:07.322Z,2.70
2017-11-20T19:18:35.644Z,2.70
2017-11-20T19:21:04.764Z,2.70
2017-11-20T19:23:33.086Z,2.70
2017-11-20T19:26:01.370Z,2.80
2017-11-20T19:28:29.647Z,2.80
2017-11-20T19:30:57.931Z,2.80
2017-11-20T19:33:26.259Z,2.80
2017-11-20T19:35:54.558Z,2.90
2017-11-20T19:38:22.843Z,2.90
2017-11-20T19:40:51.131Z,3.00
2017-11-20T19:43:19.416Z,3.00
2017-11-20T19:45:47.745Z,3.00
2017-11-20T19:48:16.804Z,3.00
2017-11-20T19:50:45.089Z,3.00
2017-11-20T19:53:13.528Z,3.00
2017-11-20T19:55:42.030Z,3.10
2017-11-20T19:58:10.679Z,3.10
2017-11-20T20:00:39.193Z,3.10
2017-11-20T20:03:08.384Z,3.20
2017-11-20T20:05:36.708Z,3.20
2017-11-20T20:08:05.018Z,3.30
2017-11-20T20:10:33.366Z,3.30
2017-11-20T20:13:01.645Z,3.40
2017-11-20T20:18:32.532Z,3.50
2017-11-20T20:21:00.859Z,3.50
2017-11-20T20:23:29.907Z,3.50
2017-11-20T20:25:58.213Z,3.50
2017-11-20T20:28:26.499Z,3.50
2017-11-20T20:30:54.844Z,3.60
2017-11-20T20:33:23.881Z,3.70
2017-11-20T20:35:52.192Z,3.70
2017-11-20T20:38:20.499Z,3.70
2017-11-20T20:40:49.541Z,3.90
2017-11-20T20:43:17.889Z,3.90
2017-11-20T20:45:46.174Z,3.90
2017-11-20T20:48:14.448Z,4.00
2017-11-20T20:50:42.770Z,4.10
2017-11-20T20:53:11.071Z,4.10
2017-11-20T20:55:40.157Z,4.20
2017-11-20T20:58:08.656Z,4.20
2017-11-20T21:00:37.013Z,4.20
2017-11-20T21:03:05.337Z,4.30
2017-11-20T21:05:34.422Z,4.30
2017-11-20T21:08:02.759Z,4.30
2017-11-20T21:10:36.742Z,4.30
2017-11-20T21:13:05.086Z,4.40
2017-11-20T21:15:33.367Z,4.40
2017-11-20T21:18:01.653Z,4.40
2017-11-20T21:20:29.933Z,4.50
2017-11-20T21:22:58.254Z,4.50
2017-11-20T21:25:26.662Z,4.50
2017-11-20T21:27:54.990Z,4.50
2017-11-20T21:30:24.036Z,4.60
2017-11-20T21:32:52.314Z,4.60
2017-11-20T21:35:20.600Z,4.60
2017-11-20T21:37:48.930Z,4.60
2017-11-20T21:40:17.251Z,4.60
2017-11-20T21:42:46.321Z,4.70
2017-11-20T21:45:14.603Z,4.70
2017-11-20T21:47:42.919Z,4.70
2017-11-20T21:50:11.284Z,4.70
2017-11-20T21:52:39.589Z,4.70
2017-11-20T21:55:07.898Z,4.70
2017-11-20T21:57:36.209Z,4.80
2017-11-20T22:00:04.547Z,4.80
2017-11-20T22:02:32.966Z,4.80
2017-11-20T22:05:02.021Z,4.90
2017-11-20T22:07:30.315Z,4.80
2017-11-20T22:09:58.593Z,4.90
2017-11-20T22:12:38.644Z,4.90
2017-11-20T22:15:06.966Z,4.90
2017-11-20T22:17:35.254Z,4.90
2017-11-20T22:20:03.557Z,4.90
2017-11-20T22:22:31.860Z,4.90
2017-11-20T22:25:00.158Z,4.90
2017-11-20T22:27:28.479Z,4.90
2017-11-20T22:29:56.833Z,5.00
2017-11-20T22:32:25.137Z,5.00
2017-11-20T22:34:53.445Z,5.00
2017-11-20T22:37:21.756Z,5.10
2017-11-20T22:39:50.040Z,5.10
2017-11-20T22:42:18.358Z,5.10
2017-11-20T22:44:46.647Z,5.10
2017-11-20T22:47:14.939Z,5.10
2017-11-20T22:49:43.315Z,5.10
2017-11-20T22:52:11.613Z,5.20
2017-11-20T22:54:39.944Z,5.20
2017-11-20T22:57:09.018Z,5.30
2017-11-20T22:59:37.381Z,5.20
2017-11-20T23:02:05.684Z,5.30
2017-11-20T23:04:33.973Z,5.30
2017-11-20T23:07:02.315Z,5.30
2017-11-20T23:09:30.617Z,5.40
2017-11-20T23:11:58.940Z,5.30
2017-11-20T23:14:27.234Z,5.30
2017-11-20T23:16:55.528Z,5.30
2017-11-20T23:19:23.814Z,5.40
2017-11-20T23:21:52.099Z,5.40
2017-11-20T23:24:20.441Z,5.40
2017-11-20T23:26:49.490Z,5.40
2017-11-20T23:29:17.797Z,5.40
2017-11-20T23:31:46.075Z,5.40
2017-11-20T23:34:14.352Z,5.50
2017-11-20T23:36:42.665Z,5.50
2017-11-20T23:39:10.973Z,5.50
2017-11-20T23:41:39.277Z,5.50
2017-11-20T23:44:08.373Z,5.50
2017-11-20T23:46:36.679Z,5.50
2017-11-20T23:49:06.865Z,5.60
2017-11-20T23:51:35.182Z,5.60
2017-11-20T23:54:04.245Z,5.60
2017-11-20T23:56:32.524Z,5.60
2017-11-20T23:59:00.840Z,5.60
